createdAt,value
2023-04-09T00:01:24.009Z,18.65
2023-04-09T00:02:55.677Z,16.65
2023-04-09T00:04:27.439Z,18.65
2023-04-09T00:05:59.142Z,14.57
2023-04-09T00:07:30.784Z,17.02
2023-04-09T00:09:02.431Z,15.93
2023-04-09T00:10:34.002Z,17.38
2023-04-09T00:12:05.799Z,17.75
2023-04-09T00:13:39.610Z,19.48
2023-04-09T00:15:20.667Z,14.93
2023-04-09T00:16:59.644Z,15.95
2023-04-09T00:18:31.201Z,16.88
2023-04-09T00:20:04.048Z,19.00
2023-04-09T00:21:35.734Z,15.05
2023-04-09T00:23:07.377Z,15.75
2023-04-09T00:24:38.998Z,18.63
2023-04-09T00:26:10.615Z,14.85
2023-04-09T00:27:42.669Z,17.38
2023-04-09T00:29:14.282Z,19.02
2023-04-09T00:30:45.965Z,15.82
2023-04-09T00:32:17.649Z,14.45
2023-04-09T00:33:49.385Z,17.60
2023-04-09T00:35:21.179Z,16.88
2023-04-09T00:36:52.901Z,18.30
2023-04-09T00:38:24.539Z,16.92
2023-04-09T00:39:56.457Z,17.10
2023-04-09T00:41:28.154Z,13.98
2023-04-09T00:42:59.685Z,14.27
2023-04-09T00:44:31.467Z,17.80
2023-04-09T00:46:04.467Z,13.55
2023-04-09T00:47:36.680Z,18.92
2023-04-09T00:49:08.491Z,17.60
2023-04-09T00:50:40.610Z,16.75
2023-04-09T00:52:12.523Z,15.60
2023-04-09T00:53:44.427Z,15.95
2023-04-09T00:55:18.219Z,16.15
2023-04-09T00:56:49.982Z,17.42
2023-04-09T00:58:21.701Z,16.65
2023-04-09T00:59:53.264Z,15.15
2023-04-09T01:01:24.903Z,15.57
2023-04-09T01:02:58.165Z,16.65
2023-04-09T01:04:30.275Z,17.42
2023-04-09T01:06:11.267Z,15.70
2023-04-09T01:08:01.787Z,14.10
2023-04-09T01:09:59.717Z,17.38
2023-04-09T01:11:51.672Z,14.30
2023-04-09T01:13:55.549Z,16.67
2023-04-09T01:15:31.354Z,18.30
2023-04-09T01:18:41.674Z,15.23
2023-04-09T01:20:36.135Z,16.55
2023-04-09T01:22:24.703Z,15.32
2023-04-09T01:24:31.609Z,16.20
2023-04-09T01:26:16.065Z,16.05
2023-04-09T01:28:12.623Z,15.00
2023-04-09T01:29:51.472Z,16.38
2023-04-09T01:31:32.953Z,17.42
2023-04-09T01:33:06.090Z,16.92
2023-04-09T01:34:38.950Z,19.88
2023-04-09T01:36:11.479Z,15.15
2023-04-09T01:37:43.152Z,21.63
2023-04-09T01:39:15.037Z,17.08
2023-04-09T01:40:47.301Z,19.80
2023-04-09T01:42:19.686Z,19.27
2023-04-09T01:43:52.979Z,19.60
2023-04-09T01:45:26.019Z,17.33
2023-04-09T01:46:59.083Z,15.55
2023-04-09T01:48:32.842Z,18.10
2023-04-09T01:50:04.866Z,18.77
2023-04-09T01:51:38.024Z,17.27
2023-04-09T01:53:09.897Z,15.73
2023-04-09T01:54:43.138Z,17.27
2023-04-09T01:56:14.929Z,18.08
2023-04-09T01:57:46.493Z,19.00
2023-04-09T01:59:18.106Z,15.57
2023-04-09T02:00:51.949Z,19.95
2023-04-09T02:02:31.964Z,21.90
2023-04-09T02:04:07.944Z,17.02
2023-04-09T02:05:46.525Z,20.65
2023-04-09T02:07:27.186Z,17.00
2023-04-09T02:09:01.756Z,19.33
2023-04-09T02:10:36.103Z,17.45
2023-04-09T02:12:13.684Z,20.02
2023-04-09T02:13:46.122Z,19.35
2023-04-09T02:15:19.766Z,17.55
2023-04-09T02:16:53.029Z,18.52
2023-04-09T02:18:28.560Z,19.20
2023-04-09T02:20:00.309Z,17.85
2023-04-09T02:21:32.244Z,17.42
2023-04-09T02:23:03.811Z,18.10
2023-04-09T02:24:36.372Z,20.02
2023-04-09T02:26:07.996Z,16.73
2023-04-09T02:27:39.642Z,15.60
2023-04-09T02:29:11.261Z,16.58
2023-04-09T02:30:42.999Z,20.77
2023-04-09T02:32:14.563Z,19.85
2023-04-09T02:33:46.166Z,21.50
2023-04-09T02:35:17.806Z,19.20
2023-04-09T02:36:49.446Z,19.27
2023-04-09T02:38:21.071Z,22.42
2023-04-09T02:39:52.755Z,19.88
2023-04-09T02:41:24.850Z,18.13
2023-04-09T02:42:58.137Z,21.52
2023-04-09T02:44:29.757Z,22.08
2023-04-09T02:46:01.988Z,19.42
2023-04-09T02:47:34.768Z,19.38
2023-04-09T02:49:06.998Z,21.67
2023-04-09T02:50:38.641Z,19.17
2023-04-09T02:52:11.388Z,17.33
2023-04-09T02:53:43.044Z,20.20
2023-04-09T02:55:15.317Z,17.85
2023-04-09T02:56:47.050Z,18.10
2023-04-09T02:58:18.692Z,18.73
2023-04-09T02:59:50.295Z,15.75
2023-04-09T03:01:22.245Z,15.25
2023-04-09T03:02:54.384Z,15.90
2023-04-09T03:04:26.360Z,15.32
2023-04-09T03:05:58.118Z,15.77
2023-04-09T03:07:29.728Z,13.00
2023-04-09T03:09:01.311Z,14.02
2023-04-09T03:10:32.867Z,16.08
2023-04-09T03:12:04.514Z,13.38
2023-04-09T03:13:36.094Z,13.95
2023-04-09T03:15:07.944Z,16.83
2023-04-09T03:16:39.583Z,15.93
2023-04-09T03:18:11.182Z,14.65
2023-04-09T03:19:42.873Z,13.88
2023-04-09T03:21:15.131Z,13.95
2023-04-09T03:22:51.939Z,15.15
2023-04-09T03:24:46.083Z,14.95
2023-04-09T03:26:17.696Z,16.75
2023-04-09T03:27:54.287Z,14.90
2023-04-09T03:29:36.136Z,13.25
2023-04-09T03:31:07.907Z,16.60
2023-04-09T03:32:42.391Z,15.13
2023-04-09T03:34:17.667Z,15.18
2023-04-09T03:35:50.106Z,14.80
2023-04-09T03:37:26.849Z,16.50
2023-04-09T03:39:00.466Z,14.23
2023-04-09T03:40:42.730Z,16.02
2023-04-09T03:42:14.341Z,16.42
2023-04-09T03:43:50.930Z,15.93
2023-04-09T03:45:26.866Z,13.90
2023-04-09T03:47:03.891Z,15.63
2023-04-09T03:48:35.511Z,17.42
2023-04-09T03:50:07.670Z,15.27
2023-04-09T03:51:50.773Z,17.08
2023-04-09T03:53:22.930Z,14.90
2023-04-09T03:54:54.604Z,16.05
2023-04-09T03:56:28.877Z,17.42
2023-04-09T03:58:00.926Z,18.27
2023-04-09T03:59:36.224Z,16.17
2023-04-09T04:01:07.818Z,19.60
2023-04-09T04:02:44.728Z,14.30
2023-04-09T04:04:16.824Z,15.05
2023-04-09T04:05:52.976Z,14.40
2023-04-09T04:07:24.568Z,18.25
2023-04-09T04:09:00.683Z,17.52
2023-04-09T04:10:40.989Z,15.88
2023-04-09T04:12:13.437Z,17.90
2023-04-09T04:13:56.370Z,17.98
2023-04-09T04:15:29.122Z,18.17
2023-04-09T04:17:01.545Z,18.70
2023-04-09T04:18:35.938Z,19.08
2023-04-09T04:20:08.413Z,19.88
2023-04-09T04:21:48.402Z,15.35
2023-04-09T04:23:20.370Z,15.68
2023-04-09T04:25:05.424Z,16.02
2023-04-09T04:26:36.964Z,15.85
2023-04-09T04:28:08.988Z,21.50
2023-04-09T04:29:45.238Z,18.85
2023-04-09T04:33:02.320Z,19.38
2023-04-09T04:34:40.741Z,19.85
2023-04-09T04:36:24.212Z,16.95
2023-04-09T04:37:57.010Z,16.42
2023-04-09T04:39:31.270Z,16.80
2023-04-09T04:41:08.315Z,13.52
2023-04-09T04:42:43.951Z,19.83
2023-04-09T04:44:19.438Z,17.70
2023-04-09T04:45:53.607Z,15.27
2023-04-09T04:47:28.556Z,17.10
2023-04-09T04:49:00.215Z,17.88
2023-04-09T04:50:33.860Z,20.13
2023-04-09T04:52:11.938Z,20.75
2023-04-09T04:53:47.503Z,16.58
2023-04-09T04:55:20.072Z,16.25
2023-04-09T04:56:52.683Z,16.40
2023-04-09T04:58:36.652Z,17.55
2023-04-09T05:00:08.958Z,15.95
2023-04-09T05:01:41.607Z,19.50
2023-04-09T05:03:16.529Z,16.38
2023-04-09T05:05:11.174Z,15.40
2023-04-09T05:06:51.998Z,17.20
2023-04-09T05:08:27.511Z,14.52
2023-04-09T05:10:00.718Z,18.67
2023-04-09T05:11:37.911Z,15.73
2023-04-09T05:13:13.351Z,19.58
2023-04-09T05:14:45.032Z,18.60
2023-04-09T05:16:18.452Z,17.67
2023-04-09T05:17:54.487Z,16.92
2023-04-09T05:19:26.617Z,19.17
2023-04-09T05:21:05.400Z,16.40
2023-04-09T05:22:38.557Z,17.20
2023-04-09T05:24:10.767Z,18.40
2023-04-09T05:25:42.357Z,17.35
2023-04-09T05:27:22.163Z,20.13
2023-04-09T05:28:55.370Z,17.02
2023-04-09T05:30:28.310Z,17.80
2023-04-09T05:32:03.126Z,18.15
2023-04-09T05:33:42.601Z,15.80
2023-04-09T05:35:21.479Z,16.98
2023-04-09T05:36:54.163Z,16.38
2023-04-09T05:38:27.418Z,17.52
2023-04-09T05:40:02.183Z,16.67
2023-04-09T05:41:37.372Z,16.98
2023-04-09T05:43:27.157Z,17.60
2023-04-09T05:44:58.776Z,15.85
2023-04-09T05:46:31.378Z,16.15
2023-04-09T05:48:04.109Z,18.50
2023-04-09T05:49:36.384Z,16.65
2023-04-09T05:51:15.533Z,18.23
2023-04-09T05:52:47.287Z,26.15
2023-04-09T05:54:19.936Z,18.83
2023-04-09T05:55:54.606Z,18.73
2023-04-09T05:57:31.163Z,21.63
2023-04-09T05:59:06.256Z,20.95
2023-04-09T06:00:37.935Z,21.02
2023-04-09T06:02:09.570Z,20.38
2023-04-09T06:03:41.730Z,18.77
2023-04-09T06:05:13.468Z,19.40
2023-04-09T06:06:45.881Z,21.65
2023-04-09T06:08:17.579Z,20.33
2023-04-09T06:09:49.342Z,23.17
2023-04-09T06:11:22.934Z,19.13
2023-04-09T06:12:54.660Z,21.60
2023-04-09T06:14:26.311Z,22.50
2023-04-09T06:15:57.917Z,20.77
2023-04-09T06:17:29.898Z,21.35
2023-04-09T06:19:01.574Z,19.92
2023-04-09T06:20:33.191Z,21.77
2023-04-09T06:22:04.864Z,19.77
2023-04-09T06:23:37.070Z,19.65
2023-04-09T06:25:08.804Z,19.90
2023-04-09T06:26:40.421Z,18.40
2023-04-09T06:28:12.216Z,21.27
2023-04-09T06:29:43.771Z,20.65
2023-04-09T06:31:15.697Z,21.45
2023-04-09T06:32:54.465Z,19.83
2023-04-09T06:34:27.007Z,21.83
2023-04-09T06:35:58.992Z,20.45
2023-04-09T06:37:30.918Z,20.88
2023-04-09T06:39:03.037Z,19.05
2023-04-09T06:40:34.916Z,18.60
2023-04-09T06:42:06.527Z,19.15
2023-04-09T06:44:00.056Z,18.92
2023-04-09T06:45:32.614Z,20.42
2023-04-09T06:47:04.251Z,15.35
2023-04-09T06:48:36.161Z,15.05
2023-04-09T06:50:08.335Z,16.42
2023-04-09T06:51:39.914Z,18.30
2023-04-09T06:53:11.582Z,16.55
2023-04-09T06:54:44.390Z,17.05
2023-04-09T06:56:16.267Z,17.00
2023-04-09T06:57:47.980Z,18.25
2023-04-09T06:59:19.510Z,17.70
2023-04-09T07:00:51.163Z,16.17
2023-04-09T07:02:23.258Z,15.57
2023-04-09T07:03:55.322Z,18.38
2023-04-09T07:05:27.314Z,14.38
2023-04-09T07:07:00.131Z,15.80
2023-04-09T07:08:31.878Z,18.63
2023-04-09T07:10:03.625Z,16.95
2023-04-09T07:11:35.240Z,16.38
2023-04-09T07:13:07.235Z,19.92
2023-04-09T07:14:38.847Z,19.60
2023-04-09T07:16:10.637Z,20.42
2023-04-09T07:17:42.651Z,21.13
2023-04-09T07:19:14.224Z,18.23
2023-04-09T07:20:45.967Z,20.20
2023-04-09T07:22:18.289Z,18.63
2023-04-09T07:23:49.984Z,18.08
2023-04-09T07:25:21.620Z,18.40
2023-04-09T07:26:53.384Z,21.20
2023-04-09T07:28:25.025Z,19.27
2023-04-09T07:30:00.379Z,19.25
2023-04-09T07:31:35.300Z,18.15
2023-04-09T07:34:39.182Z,15.85
2023-04-09T07:36:11.109Z,17.15
2023-04-09T07:37:42.816Z,15.38
2023-04-09T07:39:14.392Z,15.52
2023-04-09T07:40:46.089Z,15.50
2023-04-09T07:42:17.767Z,13.52
2023-04-09T07:43:49.399Z,16.70
2023-04-09T07:45:21.211Z,17.55
2023-04-09T07:46:52.874Z,17.52
2023-04-09T07:48:24.548Z,16.45
2023-04-09T07:49:56.252Z,16.10
2023-04-09T07:51:28.068Z,16.05
2023-04-09T07:52:59.674Z,14.73
2023-04-09T07:54:31.849Z,15.90
2023-04-09T07:56:03.819Z,13.75
2023-04-09T07:57:35.475Z,13.63
2023-04-09T07:59:07.204Z,15.07
2023-04-09T08:00:38.875Z,15.98
2023-04-09T08:02:13.449Z,16.00
2023-04-09T08:03:46.763Z,15.20
2023-04-09T08:05:18.568Z,12.80
2023-04-09T08:06:51.196Z,14.40
2023-04-09T08:08:22.946Z,12.48
2023-04-09T08:09:54.594Z,12.43
2023-04-09T08:11:26.409Z,11.63
2023-04-09T08:12:58.020Z,11.32
2023-04-09T08:14:29.602Z,10.63
2023-04-09T08:16:02.361Z,12.55
2023-04-09T08:17:34.118Z,10.45
2023-04-09T08:19:05.809Z,8.60
2023-04-09T08:20:37.938Z,11.35
2023-04-09T08:22:09.543Z,9.38
2023-04-09T08:23:41.171Z,11.27
2023-04-09T08:25:12.736Z,9.93
2023-04-09T08:26:44.948Z,13.55
2023-04-09T08:28:16.531Z,11.98
2023-04-09T08:29:48.245Z,12.70
2023-04-09T08:31:19.854Z,14.35
2023-04-09T08:32:51.545Z,12.70
2023-04-09T08:34:23.235Z,12.70
2023-04-09T08:35:54.920Z,14.00
2023-04-09T08:37:26.818Z,16.00
2023-04-09T08:39:00.461Z,13.30
2023-04-09T08:40:35.892Z,11.82
2023-04-09T08:42:08.197Z,13.90
2023-04-09T08:43:56.366Z,13.50
2023-04-09T08:45:29.969Z,13.82
2023-04-09T08:47:02.620Z,12.55
2023-04-09T08:48:34.342Z,12.40
2023-04-09T08:50:06.326Z,12.93
2023-04-09T08:51:39.396Z,11.30
2023-04-09T08:53:24.851Z,14.52
2023-04-09T08:54:56.787Z,11.13
2023-04-09T08:56:31.567Z,11.85
2023-04-09T08:58:10.566Z,13.25
2023-04-09T08:59:42.554Z,13.40
2023-04-09T09:01:27.444Z,11.95
2023-04-09T09:03:11.840Z,15.00
2023-04-09T09:04:48.597Z,12.98
2023-04-09T09:06:32.917Z,11.70
2023-04-09T09:08:05.671Z,13.48
2023-04-09T09:09:52.737Z,12.60
2023-04-09T09:11:28.186Z,14.90
2023-04-09T09:12:59.950Z,15.07
2023-04-09T09:14:33.291Z,12.15
2023-04-09T09:16:16.068Z,13.13
2023-04-09T09:17:56.373Z,12.65
2023-04-09T09:19:33.606Z,13.63
2023-04-09T09:21:16.316Z,13.00
2023-04-09T09:22:55.082Z,13.30
2023-04-09T09:24:27.329Z,13.32
2023-04-09T09:25:59.436Z,10.90
2023-04-09T09:27:37.038Z,13.10
2023-04-09T09:29:09.255Z,11.13
2023-04-09T09:30:41.043Z,12.10
2023-04-09T09:32:13.566Z,11.77
2023-04-09T09:33:46.753Z,11.38
2023-04-09T09:35:18.428Z,10.32
2023-04-09T09:36:50.191Z,13.63
2023-04-09T09:38:21.966Z,10.50
2023-04-09T09:39:54.228Z,10.90
2023-04-09T09:41:25.997Z,9.15
2023-04-09T09:42:57.953Z,11.20
2023-04-09T09:44:33.444Z,9.38
2023-04-09T09:46:05.520Z,10.88
2023-04-09T09:47:37.525Z,9.85
2023-04-09T09:49:09.575Z,9.13
2023-04-09T09:50:42.543Z,7.75
2023-04-09T09:52:14.440Z,10.40
2023-04-09T09:53:49.748Z,9.20
2023-04-09T09:55:24.168Z,9.90
2023-04-09T09:57:01.043Z,8.48
2023-04-09T09:58:38.750Z,8.57
2023-04-09T10:00:13.476Z,9.27
2023-04-09T10:01:46.579Z,7.72
2023-04-09T10:03:23.508Z,8.77
2023-04-09T10:04:55.317Z,9.00
2023-04-09T10:06:27.738Z,8.52
2023-04-09T10:08:01.687Z,9.57
2023-04-09T10:09:35.814Z,7.75
2023-04-09T10:11:07.882Z,8.20
2023-04-09T10:12:41.844Z,10.88
2023-04-09T10:14:14.145Z,10.05
2023-04-09T10:15:45.940Z,8.70
2023-04-09T10:17:17.816Z,11.00
2023-04-09T10:18:49.783Z,7.70
2023-04-09T10:20:30.315Z,9.55
2023-04-09T10:22:08.788Z,7.97
2023-04-09T10:23:42.884Z,10.70
2023-04-09T10:25:14.973Z,10.82
2023-04-09T10:26:47.056Z,12.45
2023-04-09T10:28:19.210Z,14.52
2023-04-09T10:29:52.125Z,14.90
2023-04-09T10:31:23.780Z,14.10
2023-04-09T10:32:55.396Z,12.80
2023-04-09T10:34:28.635Z,14.63
2023-04-09T10:36:04.467Z,14.38
2023-04-09T10:39:15.058Z,14.55
2023-04-09T10:40:50.925Z,14.85
2023-04-09T10:44:20.681Z,13.40
2023-04-09T10:45:54.197Z,13.80
2023-04-09T10:47:36.586Z,14.48
2023-04-09T10:49:13.495Z,12.52
2023-04-09T10:50:45.262Z,13.35
2023-04-09T10:52:17.540Z,12.57
2023-04-09T10:53:54.216Z,13.65
2023-04-09T10:55:42.458Z,13.20
2023-04-09T10:57:19.467Z,12.27
2023-04-09T10:58:51.578Z,11.05
2023-04-09T11:00:23.374Z,9.60
2023-04-09T11:01:55.128Z,10.18
2023-04-09T11:03:32.689Z,12.30
2023-04-09T11:05:12.469Z,11.07
2023-04-09T11:06:45.336Z,11.88
2023-04-09T11:08:17.088Z,11.73
2023-04-09T11:09:48.653Z,12.18
2023-04-09T11:11:26.685Z,10.38
2023-04-09T11:12:58.374Z,12.25
2023-04-09T11:14:29.943Z,13.02
2023-04-09T11:16:04.071Z,12.07
2023-04-09T11:17:36.981Z,12.20
2023-04-09T11:19:10.605Z,14.25
2023-04-09T11:20:42.912Z,9.55
2023-04-09T11:22:15.769Z,10.02
2023-04-09T11:23:53.596Z,8.85
2023-04-09T11:25:27.504Z,7.93
2023-04-09T11:27:02.125Z,10.38
2023-04-09T11:28:35.147Z,12.00
2023-04-09T11:30:07.440Z,9.50
2023-04-09T11:31:39.074Z,9.43
2023-04-09T11:33:10.814Z,10.82
2023-04-09T11:34:42.403Z,9.82
2023-04-09T11:36:14.113Z,9.77
2023-04-09T11:37:46.483Z,11.38
2023-04-09T11:39:18.091Z,9.85
2023-04-09T11:40:50.296Z,10.02
2023-04-09T11:42:22.214Z,8.35
2023-04-09T11:43:53.793Z,15.32
2023-04-09T11:45:28.339Z,10.20
2023-04-09T11:47:00.300Z,9.07
2023-04-09T11:48:31.934Z,8.80
2023-04-09T11:50:03.819Z,9.50
2023-04-09T11:51:36.021Z,9.55
2023-04-09T11:53:21.176Z,7.68
2023-04-09T11:54:52.732Z,9.73
2023-04-09T11:56:25.265Z,10.07
2023-04-09T11:58:00.747Z,8.43
2023-04-09T11:59:32.455Z,8.80
2023-04-09T12:01:04.063Z,9.57
2023-04-09T12:02:38.644Z,8.40
2023-04-09T12:04:11.226Z,8.27
2023-04-09T12:05:50.532Z,8.30
2023-04-09T12:07:22.685Z,7.28
2023-04-09T12:08:59.334Z,8.98
2023-04-09T12:10:34.361Z,8.02
2023-04-09T12:12:08.916Z,7.50
2023-04-09T12:13:43.467Z,8.02
2023-04-09T12:15:25.520Z,9.07
2023-04-09T12:16:57.199Z,9.77
2023-04-09T12:18:28.992Z,10.40
2023-04-09T12:20:00.798Z,9.95
2023-04-09T12:21:50.382Z,10.13
2023-04-09T12:23:21.992Z,9.88
2023-04-09T12:24:55.125Z,9.27
2023-04-09T12:26:26.639Z,8.30
2023-04-09T12:27:58.732Z,8.82
2023-04-09T12:29:30.640Z,8.63
2023-04-09T12:31:03.496Z,9.82
2023-04-09T12:32:35.308Z,10.10
2023-04-09T12:34:06.936Z,10.40
2023-04-09T12:35:38.825Z,9.43
2023-04-09T12:37:10.662Z,9.18
2023-04-09T12:38:42.168Z,8.00
2023-04-09T12:40:14.265Z,9.02
2023-04-09T12:41:45.772Z,9.20
2023-04-09T12:43:17.352Z,9.05
2023-04-09T12:44:48.968Z,9.57
2023-04-09T12:46:20.709Z,9.82
2023-04-09T12:47:52.917Z,8.30
2023-04-09T12:49:24.638Z,8.20
2023-04-09T12:50:56.485Z,8.98
2023-04-09T12:52:28.055Z,8.45
2023-04-09T12:53:59.659Z,9.23
2023-04-09T12:55:31.661Z,9.25
2023-04-09T12:57:03.440Z,8.13
2023-04-09T12:58:35.526Z,7.78
2023-04-09T13:00:07.981Z,8.43
2023-04-09T13:01:41.994Z,9.07
2023-04-09T13:03:16.959Z,9.50
2023-04-09T13:04:49.187Z,10.32
2023-04-09T13:06:22.402Z,9.30
2023-04-09T13:07:53.962Z,8.48
2023-04-09T13:09:25.773Z,8.43
2023-04-09T13:10:57.352Z,9.52
2023-04-09T13:12:28.941Z,10.00
2023-04-09T13:14:00.523Z,9.07
2023-04-09T13:15:32.257Z,9.90
2023-04-09T13:17:04.020Z,8.05
2023-04-09T13:18:35.657Z,10.10
2023-04-09T13:20:08.205Z,7.95
2023-04-09T13:21:39.831Z,8.57
2023-04-09T13:23:11.469Z,7.88
2023-04-09T13:24:43.380Z,9.05
2023-04-09T13:26:15.014Z,9.00
2023-04-09T13:27:46.695Z,9.77
2023-04-09T13:29:18.290Z,7.82
2023-04-09T13:30:49.922Z,6.40
2023-04-09T13:32:23.437Z,8.15
2023-04-09T13:33:55.287Z,7.45
2023-04-09T13:35:27.261Z,8.07
2023-04-09T13:36:58.996Z,7.10
2023-04-09T13:38:30.673Z,7.20
2023-04-09T13:40:02.291Z,6.68
2023-04-09T13:41:34.181Z,7.05
2023-04-09T13:43:05.999Z,7.70
2023-04-09T13:44:37.554Z,7.22
2023-04-09T13:46:09.125Z,8.98
2023-04-09T13:47:41.250Z,7.97
2023-04-09T13:49:12.989Z,7.15
2023-04-09T13:50:44.626Z,7.30
2023-04-09T13:52:16.410Z,9.15
2023-04-09T13:53:48.952Z,7.78
2023-04-09T13:55:20.692Z,7.57
2023-04-09T13:56:52.337Z,8.82
2023-04-09T13:58:24.039Z,8.00
2023-04-09T13:59:55.708Z,8.77
2023-04-09T14:01:28.297Z,9.15
2023-04-09T14:03:00.038Z,6.78
2023-04-09T14:04:32.011Z,7.63
2023-04-09T14:06:04.460Z,6.78
2023-04-09T14:07:36.464Z,8.00
2023-04-09T14:09:08.916Z,8.95
2023-04-09T14:10:40.520Z,8.10
2023-04-09T14:12:12.093Z,7.68
2023-04-09T14:13:43.724Z,6.93
2023-04-09T14:15:15.467Z,6.20
2023-04-09T14:16:47.096Z,5.93
2023-04-09T14:18:18.683Z,7.55
2023-04-09T14:19:50.325Z,8.48
2023-04-09T14:21:21.943Z,8.00
2023-04-09T14:22:53.998Z,7.78
2023-04-09T14:24:25.717Z,6.78
2023-04-09T14:25:57.315Z,8.68
2023-04-09T14:27:28.959Z,7.78
2023-04-09T14:29:00.597Z,7.18
2023-04-09T14:30:32.219Z,7.47
2023-04-09T14:32:03.875Z,8.40
2023-04-09T14:33:35.610Z,8.38
2023-04-09T14:35:07.516Z,7.00
2023-04-09T14:36:39.060Z,7.97
2023-04-09T14:38:10.752Z,8.30
2023-04-09T14:39:42.289Z,7.57
2023-04-09T14:41:13.900Z,7.82
2023-04-09T14:42:45.681Z,7.70
2023-04-09T14:44:17.622Z,7.15
2023-04-09T14:45:49.202Z,7.57
2023-04-09T14:47:21.043Z,7.53
2023-04-09T14:48:53.362Z,6.70
2023-04-09T14:50:25.270Z,6.72
2023-04-09T14:51:56.918Z,7.32
2023-04-09T14:53:28.507Z,7.07
2023-04-09T14:55:00.022Z,5.80
2023-04-09T14:56:31.657Z,6.65
2023-04-09T14:58:04.625Z,7.35
2023-04-09T14:59:36.682Z,6.88
2023-04-09T15:01:08.403Z,6.57
2023-04-09T15:02:40.360Z,7.68
2023-04-09T15:04:12.200Z,8.23
2023-04-09T15:05:43.884Z,9.68
2023-04-09T15:07:15.483Z,8.98
2023-04-09T15:08:47.118Z,8.13
2023-04-09T15:10:19.033Z,8.32
2023-04-09T15:11:50.650Z,7.65
2023-04-09T15:13:22.306Z,7.47
2023-04-09T15:14:55.688Z,8.23
2023-04-09T15:16:28.784Z,8.98
2023-04-09T15:18:05.585Z,7.72
2023-04-09T15:19:37.434Z,8.20
2023-04-09T15:21:08.992Z,9.10
2023-04-09T15:22:40.846Z,7.28
2023-04-09T15:24:12.386Z,7.72
2023-04-09T15:25:44.103Z,7.30
2023-04-09T15:27:15.995Z,10.13
2023-04-09T15:28:48.096Z,7.60
2023-04-09T15:30:19.718Z,8.52
2023-04-09T15:31:55.032Z,9.27
2023-04-09T15:33:27.941Z,8.45
2023-04-09T15:35:00.816Z,9.48
2023-04-09T15:36:32.585Z,7.60
2023-04-09T15:38:04.207Z,7.85
2023-04-09T15:39:36.068Z,7.72
2023-04-09T15:41:07.804Z,9.43
2023-04-09T15:42:39.406Z,9.63
2023-04-09T15:44:11.520Z,8.27
2023-04-09T15:45:43.857Z,11.35
2023-04-09T15:47:15.626Z,10.85
2023-04-09T15:48:47.323Z,10.88
2023-04-09T15:50:19.584Z,10.35
2023-04-09T15:51:51.222Z,8.00
2023-04-09T15:53:26.704Z,9.15
2023-04-09T15:54:58.332Z,9.95
2023-04-09T15:56:30.045Z,9.57
2023-04-09T15:58:01.819Z,9.02
2023-04-09T15:59:33.484Z,10.80
2023-04-09T16:01:08.856Z,10.05
2023-04-09T16:02:40.931Z,8.82
2023-04-09T16:04:12.703Z,9.13
2023-04-09T16:05:44.533Z,9.55
2023-04-09T16:07:16.489Z,8.25
2023-04-09T16:08:48.130Z,9.15
2023-04-09T16:10:19.866Z,13.07
2023-04-09T16:11:51.652Z,8.20
2023-04-09T16:13:23.220Z,10.52
2023-04-09T16:14:54.940Z,10.10
2023-04-09T16:16:26.559Z,8.43
2023-04-09T16:17:58.288Z,8.82
2023-04-09T16:19:29.981Z,7.85
2023-04-09T16:21:01.620Z,7.45
2023-04-09T16:22:33.563Z,7.63
2023-04-09T16:24:05.354Z,8.02
2023-04-09T16:25:36.998Z,9.38
2023-04-09T16:27:08.727Z,8.35
2023-04-09T16:28:40.430Z,9.05
2023-04-09T16:30:12.248Z,8.05
2023-04-09T16:31:44.099Z,8.45
2023-04-09T16:33:15.892Z,9.07
2023-04-09T16:34:47.522Z,9.27
2023-04-09T16:36:19.096Z,9.55
2023-04-09T16:37:51.973Z,10.30
2023-04-09T16:39:23.632Z,9.15
2023-04-09T16:40:56.210Z,9.90
2023-04-09T16:42:28.128Z,11.73
2023-04-09T16:44:00.134Z,10.60
2023-04-09T16:45:32.093Z,8.57
2023-04-09T16:47:05.456Z,9.02
2023-04-09T16:48:41.618Z,9.15
2023-04-09T16:50:13.567Z,9.07
2023-04-09T16:51:46.196Z,7.05
2023-04-09T16:53:17.952Z,6.97
2023-04-09T16:54:49.739Z,8.55
2023-04-09T16:56:21.346Z,8.65
2023-04-09T16:57:55.939Z,6.43
2023-04-09T16:59:27.683Z,8.32
2023-04-09T17:00:59.349Z,8.30
2023-04-09T17:02:31.566Z,8.85
2023-04-09T17:04:03.654Z,9.40
2023-04-09T17:05:35.547Z,7.50
2023-04-09T17:07:07.265Z,7.55
2023-04-09T17:08:38.801Z,8.40
2023-04-09T17:10:10.739Z,6.85
2023-04-09T17:11:42.388Z,7.65
2023-04-09T17:13:14.083Z,9.60
2023-04-09T17:14:46.046Z,8.98
2023-04-09T17:16:18.452Z,8.68
2023-04-09T17:17:52.455Z,10.18
2023-04-09T17:19:24.179Z,10.35
2023-04-09T17:20:55.932Z,7.60
2023-04-09T17:22:27.506Z,8.98
2023-04-09T17:23:59.749Z,11.82
2023-04-09T17:25:31.342Z,9.25
2023-04-09T17:27:07.254Z,8.02
2023-04-09T17:30:11.055Z,8.70
2023-04-09T17:31:43.270Z,10.02
2023-04-09T17:33:14.970Z,10.20
2023-04-09T17:34:50.599Z,9.20
2023-04-09T17:36:23.009Z,8.18
2023-04-09T17:37:55.248Z,8.23
2023-04-09T17:39:29.291Z,7.97
2023-04-09T17:41:01.186Z,7.75
2023-04-09T17:42:32.862Z,9.40
2023-04-09T17:44:04.560Z,9.77
2023-04-09T17:45:36.289Z,11.98
2023-04-09T17:47:07.975Z,7.47
2023-04-09T17:48:40.192Z,8.25
2023-04-09T17:50:11.937Z,8.30
2023-04-09T17:51:44.621Z,9.02
2023-04-09T17:53:16.626Z,9.57
2023-04-09T17:54:50.564Z,10.52
2023-04-09T17:56:25.174Z,8.38
2023-04-09T17:57:57.046Z,9.52
2023-04-09T17:59:29.064Z,8.55
2023-04-09T18:01:01.331Z,9.20
2023-04-09T18:02:33.461Z,10.50
2023-04-09T18:04:05.576Z,9.95
2023-04-09T18:05:38.274Z,9.18
2023-04-09T18:07:10.080Z,8.20
2023-04-09T18:08:43.391Z,8.27
2023-04-09T18:10:15.056Z,9.43
2023-04-09T18:11:47.289Z,8.90
2023-04-09T18:13:18.890Z,9.35
2023-04-09T18:14:50.701Z,10.35
2023-04-09T18:16:23.368Z,8.80
2023-04-09T18:17:55.495Z,9.68
2023-04-09T18:19:27.208Z,9.35
2023-04-09T18:20:58.856Z,8.77
2023-04-09T18:22:30.730Z,9.30
2023-04-09T18:24:03.205Z,10.07
2023-04-09T18:25:34.910Z,9.40
2023-04-09T18:27:06.655Z,10.90
2023-04-09T18:28:38.417Z,10.63
2023-04-09T18:30:10.532Z,10.20
2023-04-09T18:31:42.698Z,9.93
2023-04-09T18:33:14.502Z,11.52
2023-04-09T18:34:47.168Z,11.25
2023-04-09T18:36:19.366Z,10.65
2023-04-09T18:37:53.231Z,22.48
2023-04-09T18:39:25.551Z,16.95
2023-04-09T18:40:57.750Z,13.38
2023-04-09T18:42:29.470Z,15.77
2023-04-09T18:44:01.158Z,16.60
2023-04-09T18:45:32.743Z,13.23
2023-04-09T18:47:05.934Z,12.07
2023-04-09T18:48:37.703Z,13.05
2023-04-09T18:50:10.204Z,11.43
2023-04-09T18:51:41.928Z,12.93
2023-04-09T18:53:13.543Z,13.60
2023-04-09T18:54:45.435Z,18.38
2023-04-09T18:56:17.094Z,12.38
2023-04-09T18:57:48.719Z,11.98
2023-04-09T18:59:20.380Z,12.57
2023-04-09T19:00:52.283Z,15.13
2023-04-09T19:02:24.055Z,12.68
2023-04-09T19:03:56.140Z,13.73
2023-04-09T19:05:31.760Z,11.25
2023-04-09T19:07:03.582Z,10.90
2023-04-09T19:08:38.396Z,15.07
2023-04-09T19:10:10.826Z,13.02
2023-04-09T19:11:42.558Z,13.13
2023-04-09T19:13:14.340Z,13.15
2023-04-09T19:14:46.239Z,12.35
2023-04-09T19:16:18.364Z,13.27
2023-04-09T19:17:50.813Z,11.50
2023-04-09T19:19:25.174Z,12.65
2023-04-09T19:20:57.077Z,12.43
2023-04-09T19:22:29.459Z,13.13
2023-04-09T19:24:01.106Z,11.35
2023-04-09T19:25:34.213Z,13.25
2023-04-09T19:27:09.670Z,10.82
2023-04-09T19:28:41.345Z,12.80
2023-04-09T19:30:13.266Z,13.00
2023-04-09T19:31:45.825Z,14.13
2023-04-09T19:33:17.683Z,12.95
2023-04-09T19:34:49.444Z,12.70
2023-04-09T19:36:21.061Z,12.10
2023-04-09T19:37:53.313Z,13.20
2023-04-09T19:39:25.396Z,16.60
2023-04-09T19:40:57.204Z,16.80
2023-04-09T19:42:29.010Z,13.95
2023-04-09T19:44:01.455Z,13.70
2023-04-09T19:45:33.145Z,15.32
2023-04-09T19:47:04.943Z,14.63
2023-04-09T19:48:37.988Z,15.30
2023-04-09T19:50:10.060Z,12.23
2023-04-09T19:51:41.784Z,13.73
2023-04-09T19:53:13.672Z,13.60
2023-04-09T19:54:46.485Z,14.65
2023-04-09T19:56:18.666Z,13.40
2023-04-09T19:57:50.404Z,14.80
2023-04-09T19:59:22.137Z,12.18
2023-04-09T20:00:53.900Z,13.43
2023-04-09T20:02:25.728Z,12.35
2023-04-09T20:03:57.695Z,13.00
2023-04-09T20:05:29.561Z,14.88
2023-04-09T20:07:01.484Z,13.73
2023-04-09T20:08:33.321Z,10.93
2023-04-09T20:10:05.684Z,12.38
2023-04-09T20:11:37.276Z,12.25
2023-04-09T20:13:09.087Z,12.20
2023-04-09T20:14:40.781Z,13.07
2023-04-09T20:16:12.503Z,12.00
2023-04-09T20:17:44.380Z,12.02
2023-04-09T20:19:16.156Z,15.50
2023-04-09T20:20:48.055Z,12.77
2023-04-09T20:22:19.758Z,13.55
2023-04-09T20:23:51.630Z,13.43
2023-04-09T20:25:23.929Z,13.65
2023-04-09T20:26:56.146Z,14.50